Time;durP1;ratioP1;P1;durP2;ratioP2;P2;SDS_P1;SDS_P2;PMS_P1;PMS_P2;Temp;Humidity;BMP_temperature;BMP_pressure;BME280_temperature;BME280_humidity;BME280_pressure;Samples;Min_cycle;Max_cycle;Signal;HPM_P1;HPM_P2
2021/12/07 00:01:50;;;;;;;7.82;1.83;;;;;;;;;;5004113;28;20049;-61
2021/12/07 00:04:17;;;;;;;15.05;2.30;;;;;;;;;;5007521;28;20042;-61
2021/12/07 00:06:44;;;;;;;9.90;2.10;;;;;;;;;;5004386;28;20022;-61
2021/12/07 00:09:13;;;;;;;12.82;2.70;;;;;;;;;;5005095;28;20409;-63
2021/12/07 00:11:40;;;;;;;15.32;2.63;;;;;;;;;;5004886;28;20101;-62
2021/12/07 00:14:15;;;;;;;13.70;2.35;;;;;;;;;;5002152;28;20029;-61
2021/12/07 00:16:43;;;;;;;26.88;3.30;;;;;;;;;;5002859;28;20081;-61
2021/12/07 00:19:11;;;;;;;12.07;2.88;;;;;;;;;;4997843;28;20057;-61
2021/12/07 00:21:39;;;;;;;22.35;3.63;;;;;;;;;;5007364;28;20537;-62
2021/12/07 00:24:06;;;;;;;25.25;4.43;;;;;;;;;;4999781;28;20046;-60
2021/12/07 00:26:33;;;;;;;21.70;4.03;;;;;;;;;;4999636;28;20021;-61
2021/12/07 00:29:03;;;;;;;27.63;3.95;;;;;;;;;;5003932;28;20093;-61
2021/12/07 00:31:39;;;;;;;14.75;3.42;;;;;;;;;;4996129;28;20037;-62
2021/12/07 00:34:17;;;;;;;22.42;3.95;;;;;;;;;;5003259;28;20037;-62
2021/12/07 00:36:46;;;;;;;22.58;3.40;;;;;;;;;;5002627;28;20021;-62
2021/12/07 00:39:14;;;;;;;27.67;4.65;;;;;;;;;;5000013;28;20054;-61
2021/12/07 00:41:41;;;;;;;18.88;3.90;;;;;;;;;;5020367;28;20022;-60
2021/12/07 00:44:09;;;;;;;22.60;4.15;;;;;;;;;;4997224;28;20129;-61
2021/12/07 00:46:36;;;;;;;15.88;3.63;;;;;;;;;;5003894;28;20326;-61
2021/12/07 00:49:04;;;;;;;20.90;3.75;;;;;;;;;;5002362;28;20025;-61
2021/12/07 00:51:31;;;;;;;13.77;3.85;;;;;;;;;;5004021;28;20033;-62
2021/12/07 00:54:02;;;;;;;21.20;3.72;;;;;;;;;;5005938;28;20052;-61
2021/12/07 00:56:29;;;;;;;18.05;3.80;;;;;;;;;;5005383;28;20053;-63
2021/12/07 00:58:56;;;;;;;24.30;3.88;;;;;;;;;;5001987;28;20021;-62
2021/12/07 01:01:26;;;;;;;16.45;3.63;;;;;;;;;;5005307;28;20017;-62
2021/12/07 01:03:54;;;;;;;20.45;3.28;;;;;;;;;;5003613;28;20053;-63
2021/12/07 01:06:45;;;;;;;17.05;2.80;;;;;;;;;;5003117;28;20018;-63
2021/12/07 01:25:35;;;;;;;20.75;3.65;;;;;;;;;;5007566;28;20139;-61
2021/12/07 01:28:09;;;;;;;15.02;2.83;;;;;;;;;;5002844;28;20077;-63
2021/12/07 01:47:04;;;;;;;14.55;2.83;;;;;;;;;;5002868;28;20037;-62
2021/12/07 01:59:31;;;;;;;14.60;2.25;;;;;;;;;;5009266;28;20040;-62
2021/12/07 02:00:41;;;;;;;11.70;2.50;;;;;;;;;;5010540;28;20030;-63
2021/12/07 02:03:08;;;;;;;16.98;2.92;;;;;;;;;;5004343;28;20045;-63
2021/12/07 02:05:36;;;;;;;10.32;2.17;;;;;;;;;;5002293;28;20168;-63
2021/12/07 02:08:03;;;;;;;8.40;2.60;;;;;;;;;;5001060;28;20045;-62
2021/12/07 02:10:32;;;;;;;15.13;3.05;;;;;;;;;;5005286;28;20023;-62
2021/12/07 02:13:06;;;;;;;9.27;2.55;;;;;;;;;;5003971;28;20025;-62
2021/12/07 02:15:34;;;;;;;10.90;2.35;;;;;;;;;;5001302;28;20026;-63
2021/12/07 02:18:01;;;;;;;17.38;2.30;;;;;;;;;;5007436;28;20476;-63
2021/12/07 02:20:31;;;;;;;6.80;1.80;;;;;;;;;;5010402;28;20046;-62
2021/12/07 02:22:58;;;;;;;7.55;2.47;;;;;;;;;;5007911;28;20018;-63
2021/12/07 02:25:25;;;;;;;10.77;2.55;;;;;;;;;;5007675;28;20038;-62
2021/12/07 02:27:53;;;;;;;16.05;2.03;;;;;;;;;;5007253;28;20046;-62
2021/12/07 02:30:21;;;;;;;12.68;2.83;;;;;;;;;;5007720;28;20056;-62
2021/12/07 02:32:51;;;;;;;12.55;2.53;;;;;;;;;;5007395;28;20054;-62
2021/12/07 02:35:24;;;;;;;21.17;2.95;;;;;;;;;;5007442;28;20021;-62
2021/12/07 02:37:51;;;;;;;18.92;2.90;;;;;;;;;;5006388;28;20069;-61
2021/12/07 02:40:19;;;;;;;17.17;2.65;;;;;;;;;;5006046;28;20547;-62
2021/12/07 02:42:46;;;;;;;10.52;2.55;;;;;;;;;;5008946;28;20030;-62
2021/12/07 02:45:13;;;;;;;14.48;3.22;;;;;;;;;;5008779;28;20034;-62
2021/12/07 02:47:40;;;;;;;19.55;4.85;;;;;;;;;;5006746;28;20110;-61
2021/12/07 02:50:08;;;;;;;31.67;6.25;;;;;;;;;;5007404;28;20021;-61
2021/12/07 02:52:36;;;;;;;25.23;6.45;;;;;;;;;;5007941;28;20022;-61
2021/12/07 02:55:04;;;;;;;40.35;7.35;;;;;;;;;;5003330;28;20100;-61
2021/12/07 02:57:33;;;;;;;32.17;6.55;;;;;;;;;;5006504;28;20473;-62
2021/12/07 03:00:07;;;;;;;27.15;7.00;;;;;;;;;;5001759;28;20024;-62
2021/12/07 03:02:41;;;;;;;37.72;9.00;;;;;;;;;;5007683;28;20060;-61
2021/12/07 03:05:23;;;;;;;34.90;7.90;;;;;;;;;;5005537;28;20112;-62
2021/12/07 03:08:19;;;;;;;36.35;8.13;;;;;;;;;;5020210;28;20030;-62
2021/12/07 03:27:26;;;;;;;20.70;5.32;;;;;;;;;;5011698;28;20527;-62
2021/12/07 03:29:53;;;;;;;17.52;3.92;;;;;;;;;;5025282;28;20034;-62
2021/12/07 03:32:20;;;;;;;19.08;4.18;;;;;;;;;;5011761;28;20022;-62
2021/12/07 03:34:47;;;;;;;21.15;4.40;;;;;;;;;;5011578;28;20452;-62
2021/12/07 03:37:14;;;;;;;18.25;4.43;;;;;;;;;;5010980;28;20044;-63
2021/12/07 03:39:41;;;;;;;23.48;4.00;;;;;;;;;;5011625;28;20030;-62
2021/12/07 03:42:08;;;;;;;17.38;4.13;;;;;;;;;;5011862;28;20030;-62
2021/12/07 03:44:35;;;;;;;18.40;3.65;;;;;;;;;;5010411;28;20128;-62
2021/12/07 03:47:02;;;;;;;14.50;3.50;;;;;;;;;;5011391;28;20464;-62
2021/12/07 03:49:29;;;;;;;21.92;3.78;;;;;;;;;;5010731;28;20030;-62
2021/12/07 03:51:56;;;;;;;15.52;3.60;;;;;;;;;;5011911;28;20022;-62
2021/12/07 03:54:23;;;;;;;10.38;2.80;;;;;;;;;;5010770;28;20026;-62
2021/12/07 03:56:50;;;;;;;10.00;2.85;;;;;;;;;;5011516;28;20080;-62
2021/12/07 03:59:18;;;;;;;11.65;2.75;;;;;;;;;;5011632;28;20030;-62
2021/12/07 04:01:45;;;;;;;10.95;2.90;;;;;;;;;;5011779;28;20026;-61
2021/12/07 04:04:12;;;;;;;14.48;2.80;;;;;;;;;;5011056;28;20038;-62
2021/12/07 04:06:40;;;;;;;12.38;2.95;;;;;;;;;;5011564;28;20509;-62
2021/12/07 04:09:07;;;;;;;24.42;3.45;;;;;;;;;;5011375;28;20049;-62
2021/12/07 04:11:34;;;;;;;8.05;2.50;;;;;;;;;;5011934;28;20385;-62
2021/12/07 04:14:02;;;;;;;10.25;2.25;;;;;;;;;;5011918;28;20033;-62
2021/12/07 04:16:29;;;;;;;10.85;2.45;;;;;;;;;;5007573;28;20033;-61
2021/12/07 04:18:56;;;;;;;9.55;2.25;;;;;;;;;;5009867;28;20033;-63
2021/12/07 04:21:23;;;;;;;11.40;2.15;;;;;;;;;;5011336;28;20083;-62
2021/12/07 04:23:50;;;;;;;10.63;2.08;;;;;;;;;;5010289;28;20045;-62
2021/12/07 04:26:17;;;;;;;9.88;2.50;;;;;;;;;;5010596;28;20050;-62
2021/12/07 04:28:45;;;;;;;11.35;2.05;;;;;;;;;;5010777;28;20099;-63
2021/12/07 04:31:12;;;;;;;11.43;1.98;;;;;;;;;;5010797;28;20053;-61
2021/12/07 04:33:40;;;;;;;5.90;1.85;;;;;;;;;;5010939;28;20034;-62
2021/12/07 04:36:07;;;;;;;7.50;1.92;;;;;;;;;;5010685;28;20107;-62
2021/12/07 04:38:35;;;;;;;5.57;1.90;;;;;;;;;;5010157;28;20025;-63
2021/12/07 04:41:02;;;;;;;8.27;2.20;;;;;;;;;;5010642;28;20473;-62
2021/12/07 04:43:29;;;;;;;10.77;1.98;;;;;;;;;;5009089;28;20046;-61
2021/12/07 04:59:20;;;;;;;6.35;1.27;;;;;;;;;;5010718;28;20504;-63
2021/12/07 05:01:48;;;;;;;4.15;1.58;;;;;;;;;;5008976;28;20091;-62
2021/12/07 05:04:21;;;;;;;5.00;1.52;;;;;;;;;;5010520;28;20539;-63
2021/12/07 05:06:52;;;;;;;6.50;1.83;;;;;;;;;;5013280;28;20079;-62
2021/12/07 05:14:30;;;;;;;5.63;1.38;;;;;;;;;;5014748;28;20026;-61
2021/12/07 05:38:29;;;;;;;5.13;1.42;;;;;;;;;;5013587;28;20145;-63
2021/12/07 05:40:56;;;;;;;3.08;0.90;;;;;;;;;;5012369;28;20025;-61
2021/12/07 05:43:23;;;;;;;3.00;1.10;;;;;;;;;;5013802;28;20030;-61
2021/12/07 05:45:50;;;;;;;2.90;0.80;;;;;;;;;;5014180;28;20030;-62
2021/12/07 05:48:18;;;;;;;3.80;1.00;;;;;;;;;;5013292;28;20061;-62
2021/12/07 05:50:45;;;;;;;4.10;1.20;;;;;;;;;;5013437;28;20026;-63
2021/12/07 05:53:12;;;;;;;4.43;1.00;;;;;;;;;;5013464;28;20366;-63
2021/12/07 05:55:40;;;;;;;3.13;1.10;;;;;;;;;;5013938;28;20022;-63
2021/12/07 05:58:12;;;;;;;5.13;0.93;;;;;;;;;;5013906;28;20037;-63
2021/12/07 06:00:43;;;;;;;2.47;0.70;;;;;;;;;;5012456;28;20041;-64
2021/12/07 06:03:10;;;;;;;4.05;1.02;;;;;;;;;;5013863;28;20397;-63
2021/12/07 06:05:38;;;;;;;2.58;1.02;;;;;;;;;;5013240;28;20774;-62
2021/12/07 06:08:05;;;;;;;3.63;1.10;;;;;;;;;;5013607;28;20026;-63
2021/12/07 06:10:32;;;;;;;5.20;0.88;;;;;;;;;;5012708;28;20632;-62
2021/12/07 06:12:59;;;;;;;3.65;1.00;;;;;;;;;;5013590;28;20457;-63
2021/12/07 06:15:30;;;;;;;3.95;1.08;;;;;;;;;;5013016;28;20548;-63
2021/12/07 06:17:57;;;;;;;4.75;1.00;;;;;;;;;;5013031;28;20069;-63
2021/12/07 06:20:24;;;;;;;3.58;1.00;;;;;;;;;;5012232;28;20029;-62
2021/12/07 06:22:52;;;;;;;5.55;1.17;;;;;;;;;;5013519;28;20389;-62
2021/12/07 06:25:18;;;;;;;5.32;1.15;;;;;;;;;;5012832;28;20084;-63
2021/12/07 06:27:46;;;;;;;1.83;0.88;;;;;;;;;;5014607;28;20053;-63
2021/12/07 06:30:14;;;;;;;2.38;1.00;;;;;;;;;;5012005;28;20508;-63
2021/12/07 06:32:41;;;;;;;4.95;1.13;;;;;;;;;;5013820;28;20021;-63
2021/12/07 06:35:09;;;;;;;3.78;1.30;;;;;;;;;;5013545;28;20030;-64
2021/12/07 06:37:36;;;;;;;5.97;1.42;;;;;;;;;;5013603;28;20032;-62
2021/12/07 06:40:05;;;;;;;2.47;0.90;;;;;;;;;;5011313;28;20080;-62
2021/12/07 06:42:32;;;;;;;2.17;1.02;;;;;;;;;;5013750;28;20432;-62
2021/12/07 06:44:59;;;;;;;3.90;1.20;;;;;;;;;;5013623;28;20038;-62
2021/12/07 06:47:26;;;;;;;1.95;0.80;;;;;;;;;;5012561;28;20030;-63
2021/12/07 06:49:53;;;;;;;3.00;0.90;;;;;;;;;;5013709;28;20072;-63
2021/12/07 06:52:20;;;;;;;2.88;0.93;;;;;;;;;;5012548;28;20473;-63
2021/12/07 06:54:47;;;;;;;2.95;0.80;;;;;;;;;;5013478;28;20026;-63
2021/12/07 06:57:14;;;;;;;3.53;1.10;;;;;;;;;;5012902;28;20025;-62
2021/12/07 06:59:41;;;;;;;4.72;1.17;;;;;;;;;;5012708;28;20033;-62
2021/12/07 07:02:09;;;;;;;1.88;1.00;;;;;;;;;;5012878;28;20068;-62
2021/12/07 07:04:36;;;;;;;2.92;0.90;;;;;;;;;;5013296;28;20574;-62
2021/12/07 07:07:03;;;;;;;5.72;1.00;;;;;;;;;;5012431;28;20462;-62
2021/12/07 07:09:30;;;;;;;1.90;0.90;;;;;;;;;;5012990;28;20033;-63
2021/12/07 07:11:57;;;;;;;1.92;0.95;;;;;;;;;;5011714;28;20022;-63
2021/12/07 07:14:24;;;;;;;3.03;1.00;;;;;;;;;;5026765;28;20029;-63
2021/12/07 07:16:51;;;;;;;3.97;1.17;;;;;;;;;;5011225;28;20108;-62
2021/12/07 07:19:18;;;;;;;2.92;0.98;;;;;;;;;;5012621;28;20045;-64
2021/12/07 07:21:45;;;;;;;2.22;0.75;;;;;;;;;;5011856;28;20014;-62
2021/12/07 07:24:12;;;;;;;6.47;1.38;;;;;;;;;;5010898;28;20099;-63
2021/12/07 07:26:39;;;;;;;3.75;0.85;;;;;;;;;;5012353;28;20109;-63
2021/12/07 07:29:06;;;;;;;2.85;0.70;;;;;;;;;;5011132;28;20045;-63
2021/12/07 07:31:36;;;;;;;5.20;1.15;;;;;;;;;;5011049;28;20014;-62
2021/12/07 07:34:03;;;;;;;8.15;1.25;;;;;;;;;;5012024;28;20101;-62
2021/12/07 07:36:30;;;;;;;2.03;0.98;;;;;;;;;;5011051;28;20029;-64
2021/12/07 07:38:57;;;;;;;3.58;1.02;;;;;;;;;;5012031;28;20030;-63
2021/12/07 07:41:24;;;;;;;3.65;1.00;;;;;;;;;;5012312;28;20101;-63
2021/12/07 07:43:52;;;;;;;4.47;1.20;;;;;;;;;;5011375;28;20026;-62
2021/12/07 07:46:19;;;;;;;1.55;0.77;;;;;;;;;;5010836;28;20424;-62
2021/12/07 07:48:46;;;;;;;3.63;0.90;;;;;;;;;;5010823;28;20065;-62
2021/12/07 07:51:14;;;;;;;2.10;0.75;;;;;;;;;;5011970;28;20098;-62
2021/12/07 07:53:41;;;;;;;4.20;0.90;;;;;;;;;;5011815;28;20022;-63
2021/12/07 07:56:08;;;;;;;2.63;0.90;;;;;;;;;;5011977;28;20065;-65
2021/12/07 07:58:35;;;;;;;4.13;1.08;;;;;;;;;;5011526;28;20096;-64
2021/12/07 08:01:02;;;;;;;3.53;0.90;;;;;;;;;;5011213;28;20025;-62
2021/12/07 08:03:29;;;;;;;3.20;0.77;;;;;;;;;;5011625;28;20030;-63
2021/12/07 08:05:56;;;;;;;2.95;0.98;;;;;;;;;;5011712;28;20723;-62
2021/12/07 08:08:23;;;;;;;2.08;0.80;;;;;;;;;;5011545;28;20034;-62
2021/12/07 08:10:50;;;;;;;3.85;0.95;;;;;;;;;;5011463;28;20115;-63
2021/12/07 08:13:18;;;;;;;4.65;1.00;;;;;;;;;;5011061;28;20033;-62
2021/12/07 08:15:47;;;;;;;3.45;1.00;;;;;;;;;;5011469;28;20018;-63
2021/12/07 08:18:14;;;;;;;3.72;1.00;;;;;;;;;;5010871;28;20040;-62
2021/12/07 08:20:42;;;;;;;7.82;1.20;;;;;;;;;;5011473;28;20029;-62
2021/12/07 08:23:09;;;;;;;8.07;1.30;;;;;;;;;;5011032;28;20092;-62
2021/12/07 08:25:38;;;;;;;5.68;1.10;;;;;;;;;;5011168;28;20026;-62
2021/12/07 08:28:07;;;;;;;3.45;0.98;;;;;;;;;;5011178;28;20052;-61
2021/12/07 08:30:35;;;;;;;6.90;1.10;;;;;;;;;;5011019;28;20026;-61
2021/12/07 08:33:02;;;;;;;2.65;1.00;;;;;;;;;;5011390;28;20557;-61
2021/12/07 08:35:29;;;;;;;3.03;1.10;;;;;;;;;;5011185;28;20047;-61
2021/12/07 08:37:56;;;;;;;5.10;1.27;;;;;;;;;;5011341;28;20020;-62
2021/12/07 08:40:25;;;;;;;4.90;0.90;;;;;;;;;;5010416;28;20029;-61
2021/12/07 08:42:52;;;;;;;2.03;0.98;;;;;;;;;;5010695;28;20072;-61
2021/12/07 08:45:20;;;;;;;3.38;1.20;;;;;;;;;;5011396;28;20061;-62
2021/12/07 08:47:47;;;;;;;4.88;1.20;;;;;;;;;;5010514;28;20021;-61
2021/12/07 08:50:25;;;;;;;3.08;1.23;;;;;;;;;;5011200;28;20030;-62
2021/12/07 08:52:54;;;;;;;2.88;1.00;;;;;;;;;;5009918;28;20018;-62
2021/12/07 09:00:53;;;;;;;3.35;1.27;;;;;;;;;;5011398;28;20068;-62
2021/12/07 09:03:20;;;;;;;3.10;1.20;;;;;;;;;;5009830;28;20072;-61
2021/12/07 09:05:48;;;;;;;3.22;1.23;;;;;;;;;;5011107;28;20029;-62
2021/12/07 09:08:15;;;;;;;2.83;0.82;;;;;;;;;;5010402;28;20129;-61
2021/12/07 09:10:42;;;;;;;8.93;1.50;;;;;;;;;;5010922;28;20033;-61
2021/12/07 09:13:09;;;;;;;2.97;1.20;;;;;;;;;;5010779;28;20030;-61
2021/12/07 09:15:37;;;;;;;4.05;1.10;;;;;;;;;;5009825;28;20467;-61
2021/12/07 09:18:04;;;;;;;3.95;1.23;;;;;;;;;;5010250;28;20030;-61
2021/12/07 09:20:31;;;;;;;2.33;1.05;;;;;;;;;;5010972;28;20030;-62
2021/12/07 09:22:58;;;;;;;3.85;1.10;;;;;;;;;;5009002;28;20493;-61
2021/12/07 09:25:25;;;;;;;4.95;1.35;;;;;;;;;;5009961;28;20116;-62
2021/12/07 09:27:52;;;;;;;5.18;1.77;;;;;;;;;;5010219;28;20559;-62
2021/12/07 09:30:20;;;;;;;8.35;1.60;;;;;;;;;;5010708;28;20482;-62
2021/12/07 09:32:47;;;;;;;6.38;1.45;;;;;;;;;;5009232;28;20104;-61
2021/12/07 09:35:15;;;;;;;7.18;1.40;;;;;;;;;;5010670;28;20115;-62
2021/12/07 09:37:42;;;;;;;5.55;1.25;;;;;;;;;;5010332;28;20477;-61
2021/12/07 09:40:12;;;;;;;8.45;1.40;;;;;;;;;;5008880;28;20033;-63
2021/12/07 09:42:39;;;;;;;6.15;1.30;;;;;;;;;;5009932;28;20077;-62
2021/12/07 09:45:11;;;;;;;6.32;1.60;;;;;;;;;;5010149;28;20029;-61
2021/12/07 09:47:38;;;;;;;6.28;1.42;;;;;;;;;;5010710;28;20018;-62
2021/12/07 09:50:06;;;;;;;7.57;1.55;;;;;;;;;;5010022;28;20036;-62
2021/12/07 09:52:33;;;;;;;4.40;1.10;;;;;;;;;;5010357;28;20030;-62
2021/12/07 09:55:00;;;;;;;8.13;1.88;;;;;;;;;;5010456;28;20029;-63
2021/12/07 09:57:27;;;;;;;6.88;1.30;;;;;;;;;;5011239;28;20042;-63
2021/12/07 09:59:54;;;;;;;8.00;1.60;;;;;;;;;;5010782;28;20018;-61
2021/12/07 10:02:21;;;;;;;3.83;1.40;;;;;;;;;;5012615;28;20164;-63
2021/12/07 10:04:48;;;;;;;5.03;1.40;;;;;;;;;;5011917;28;20037;-63
2021/12/07 10:07:16;;;;;;;7.93;1.42;;;;;;;;;;5012449;28;20022;-62
2021/12/07 10:09:43;;;;;;;2.58;1.08;;;;;;;;;;5012447;28;20025;-63
2021/12/07 10:12:17;;;;;;;6.00;1.23;;;;;;;;;;5011777;28;20481;-62
2021/12/07 10:14:44;;;;;;;9.75;1.98;;;;;;;;;;5012434;28;20029;-62
2021/12/07 10:17:11;;;;;;;4.68;1.08;;;;;;;;;;5013745;28;20466;-62
2021/12/07 10:19:43;;;;;;;4.63;1.20;;;;;;;;;;5013039;28;20667;-63
2021/12/07 10:22:12;;;;;;;8.07;1.52;;;;;;;;;;5013508;28;20040;-62
2021/12/07 10:24:48;;;;;;;6.28;1.25;;;;;;;;;;5010995;28;20037;-63
2021/12/07 10:27:31;;;;;;;8.90;1.30;;;;;;;;;;5013349;28;20128;-63
2021/12/07 10:29:58;;;;;;;7.80;1.35;;;;;;;;;;5011110;28;20045;-62
2021/12/07 10:32:26;;;;;;;7.75;1.60;;;;;;;;;;5013080;28;20022;-62
2021/12/07 10:34:53;;;;;;;6.10;1.40;;;;;;;;;;5012589;28;20033;-61
2021/12/07 10:37:20;;;;;;;7.10;1.65;;;;;;;;;;5012389;28;20022;-61
2021/12/07 10:39:50;;;;;;;7.95;1.40;;;;;;;;;;5012818;28;20037;-61
2021/12/07 10:42:20;;;;;;;9.30;1.30;;;;;;;;;;5011530;28;20022;-63
2021/12/07 10:44:47;;;;;;;14.68;1.55;;;;;;;;;;5010686;28;20052;-62
2021/12/07 10:47:15;;;;;;;7.65;1.35;;;;;;;;;;5012035;28;20101;-61
2021/12/07 10:49:43;;;;;;;5.82;1.33;;;;;;;;;;5011635;28;20026;-61
2021/12/07 10:52:24;;;;;;;9.40;1.95;;;;;;;;;;5012696;28;20018;-59
2021/12/07 10:54:57;;;;;;;7.53;1.42;;;;;;;;;;5012386;28;20026;-58
2021/12/07 10:57:24;;;;;;;6.78;1.30;;;;;;;;;;5012305;28;20022;-60
2021/12/07 11:00:09;;;;;;;8.50;1.38;;;;;;;;;;5013000;28;20040;-59
2021/12/07 11:02:40;;;;;;;10.65;1.35;;;;;;;;;;5012410;28;20502;-61
2021/12/07 11:05:12;;;;;;;7.38;1.10;;;;;;;;;;5010423;28;20044;-59
2021/12/07 11:07:38;;;;;;;;;;;;;;;;;;5012621;28;20148;-60
2021/12/07 11:10:15;;;;;;;8.20;1.60;;;;;;;;;;5011736;28;19910;-60
2021/12/07 11:12:52;;;;;;;15.90;2.45;;;;;;;;;;5011203;28;20034;-59
2021/12/07 11:15:24;;;;;;;14.88;1.63;;;;;;;;;;5011047;28;20034;-61
2021/12/07 11:17:52;;;;;;;12.30;1.88;;;;;;;;;;5012054;28;20034;-61
2021/12/07 11:20:19;;;;;;;13.38;1.75;;;;;;;;;;5012330;28;20065;-59
2021/12/07 11:22:56;;;;;;;15.52;2.08;;;;;;;;;;5012018;28;20100;-60
2021/12/07 11:29:39;;;;;;;12.35;1.60;;;;;;;;;;5011806;28;20030;-60
2021/12/07 11:31:36;;;;;;;17.58;2.00;;;;;;;;;;5012377;28;20040;-60
2021/12/07 11:34:11;;;;;;;22.70;2.85;;;;;;;;;;5011347;28;20101;-60
2021/12/07 11:36:51;;;;;;;13.50;2.05;;;;;;;;;;5010673;28;20053;-62
2021/12/07 11:39:36;;;;;;;12.02;1.90;;;;;;;;;;5011947;28;20088;-62
2021/12/07 11:42:05;;;;;;;17.25;2.55;;;;;;;;;;5011716;28;20033;-62
2021/12/07 11:44:34;;;;;;;15.65;2.53;;;;;;;;;;5011289;28;20030;-62
2021/12/07 11:47:02;;;;;;;15.15;2.50;;;;;;;;;;5012075;28;20022;-63
2021/12/07 11:49:30;;;;;;;17.65;2.33;;;;;;;;;;5011363;28;20239;-61
2021/12/07 11:52:01;;;;;;;80.78;6.25;;;;;;;;;;5010278;28;20057;-61
2021/12/07 11:54:30;;;;;;;50.25;5.15;;;;;;;;;;5011562;28;20117;-62
2021/12/07 11:56:59;;;;;;;55.15;4.95;;;;;;;;;;5011336;28;20032;-62
2021/12/07 11:59:26;;;;;;;55.85;8.93;;;;;;;;;;5011349;28;20036;-62
2021/12/07 12:01:53;;;;;;;100.00;11.93;;;;;;;;;;5011272;28;20026;-62
2021/12/07 12:04:21;;;;;;;94.05;11.02;;;;;;;;;;5011259;28;20052;-62
2021/12/07 12:06:50;;;;;;;77.47;9.23;;;;;;;;;;5011396;28;20054;-62
2021/12/07 12:09:18;;;;;;;59.38;7.25;;;;;;;;;;5011303;28;20517;-62
2021/12/07 12:11:55;;;;;;;29.25;4.15;;;;;;;;;;5011401;28;20026;-62
2021/12/07 12:14:22;;;;;;;25.63;2.70;;;;;;;;;;5011262;28;20544;-62
2021/12/07 12:16:57;;;;;;;25.52;2.65;;;;;;;;;;5010211;28;20385;-62
2021/12/07 12:19:24;;;;;;;13.18;2.22;;;;;;;;;;5007025;28;20504;-60
2021/12/07 12:21:56;;;;;;;19.25;2.45;;;;;;;;;;5009903;28;20030;-58
2021/12/07 12:24:37;;;;;;;20.90;2.67;;;;;;;;;;5010459;28;20493;-62
2021/12/07 12:27:08;;;;;;;14.55;2.38;;;;;;;;;;5009923;28;20080;-61
2021/12/07 12:29:36;;;;;;;7.22;2.10;;;;;;;;;;5011180;28;20030;-60
2021/12/07 12:32:04;;;;;;;21.10;2.20;;;;;;;;;;5010425;28;20112;-61
2021/12/07 12:34:32;;;;;;;33.90;2.67;;;;;;;;;;5009351;28;20418;-61
2021/12/07 12:37:02;;;;;;;29.25;3.13;;;;;;;;;;5009899;28;20030;-62
2021/12/07 12:39:47;;;;;;;47.90;4.30;;;;;;;;;;5010971;28;20038;-60
2021/12/07 12:42:37;;;;;;;93.20;7.78;;;;;;;;;;5010063;28;20072;-61
2021/12/07 12:45:20;;;;;;;51.33;4.57;;;;;;;;;;5001706;28;20775;-62
2021/12/07 12:47:46;;;;;;;;;;;;;;;;;;5010135;28;20030;-62
2021/12/07 12:50:15;;;;;;;32.53;3.58;;;;;;;;;;5010538;28;19956;-61
2021/12/07 12:52:51;;;;;;;28.45;2.88;;;;;;;;;;5009729;28;20030;-65
2021/12/07 12:55:29;;;;;;;26.30;3.15;;;;;;;;;;5009053;28;20018;-62
2021/12/07 12:57:56;;;;;;;28.10;2.20;;;;;;;;;;5009005;28;20092;-60
2021/12/07 13:00:23;;;;;;;27.77;2.47;;;;;;;;;;5010804;28;20053;-61
2021/12/07 13:02:54;;;;;;;23.63;3.42;;;;;;;;;;5009812;28;20026;-62
2021/12/07 13:05:37;;;;;;;27.85;3.05;;;;;;;;;;5009468;28;20061;-61
2021/12/07 13:08:16;;;;;;;43.50;3.85;;;;;;;;;;5009518;28;20030;-59
2021/12/07 13:11:00;;;;;;;40.65;5.53;;;;;;;;;;5010620;28;20029;-62
2021/12/07 13:13:30;;;;;;;24.52;3.83;;;;;;;;;;5010070;28;20041;-63
2021/12/07 13:15:57;;;;;;;28.15;3.60;;;;;;;;;;5010118;28;20014;-63
2021/12/07 13:18:32;;;;;;;23.73;2.53;;;;;;;;;;5008485;28;20390;-60
2021/12/07 13:20:59;;;;;;;31.05;2.85;;;;;;;;;;5006847;28;20022;-59
2021/12/07 13:23:31;;;;;;;19.75;2.70;;;;;;;;;;5018968;28;20030;-59
2021/12/07 13:25:59;;;;;;;31.10;2.50;;;;;;;;;;5009782;28;20018;-60
2021/12/07 13:28:32;;;;;;;40.25;3.03;;;;;;;;;;5010008;28;20072;-59
2021/12/07 13:31:12;;;;;;;17.58;2.28;;;;;;;;;;5014134;28;20034;-59
2021/12/07 13:33:41;;;;;;;19.00;2.13;;;;;;;;;;5013561;28;20030;-60
2021/12/07 13:36:26;;;;;;;23.58;2.35;;;;;;;;;;5000829;28;20777;-61
2021/12/07 13:38:53;;;;;;;18.60;2.85;;;;;;;;;;5001123;28;20038;-61
2021/12/07 13:41:21;;;;;;;16.42;2.90;;;;;;;;;;5003756;28;20038;-61
2021/12/07 13:43:50;;;;;;;22.80;3.03;;;;;;;;;;5004823;28;20037;-61
2021/12/07 13:46:18;;;;;;;26.02;3.45;;;;;;;;;;5000712;28;20417;-62
2021/12/07 13:48:46;;;;;;;20.95;3.35;;;;;;;;;;5001138;28;20026;-59
2021/12/07 13:51:15;;;;;;;28.20;3.03;;;;;;;;;;4995999;28;20033;-57
2021/12/07 13:53:43;;;;;;;27.33;3.90;;;;;;;;;;5001848;28;20076;-58
2021/12/07 13:56:11;;;;;;;25.83;4.28;;;;;;;;;;5002819;28;20030;-59
2021/12/07 13:58:52;;;;;;;25.85;2.70;;;;;;;;;;5003164;28;20064;-53
2021/12/07 14:01:19;;;;;;;33.70;2.72;;;;;;;;;;5025117;28;20560;-59
2021/12/07 14:03:46;;;;;;;27.05;2.83;;;;;;;;;;5002867;28;20533;-61
2021/12/07 14:06:13;;;;;;;31.20;3.05;;;;;;;;;;4998447;28;20031;-62
2021/12/07 14:08:41;;;;;;;22.38;2.88;;;;;;;;;;4994173;28;20026;-61
2021/12/07 14:11:08;;;;;;;32.38;3.53;;;;;;;;;;4992620;28;20022;-61
2021/12/07 14:13:40;;;;;;;44.50;3.85;;;;;;;;;;4993344;28;20105;-61
2021/12/07 14:16:07;;;;;;;30.50;3.60;;;;;;;;;;5017009;28;20486;-61
2021/12/07 14:18:35;;;;;;;32.97;4.15;;;;;;;;;;4993483;28;20077;-61
2021/12/07 14:21:02;;;;;;;35.22;3.50;;;;;;;;;;4993253;28;20022;-62
2021/12/07 14:23:31;;;;;;;40.13;4.40;;;;;;;;;;4993685;28;20030;-61
2021/12/07 14:26:09;;;;;;;43.45;4.25;;;;;;;;;;5011119;28;20121;-61
2021/12/07 14:28:38;;;;;;;46.35;4.82;;;;;;;;;;5013049;28;20061;-60
2021/12/07 14:31:12;;;;;;;46.97;4.72;;;;;;;;;;5008000;28;20138;-61
2021/12/07 14:33:49;;;;;;;45.80;3.67;;;;;;;;;;5011166;28;20061;-61
2021/12/07 14:36:19;;;;;;;34.45;3.83;;;;;;;;;;5011987;28;20104;-61
2021/12/07 14:38:50;;;;;;;29.65;3.25;;;;;;;;;;5011114;28;20022;-58
2021/12/07 14:41:19;;;;;;;36.20;3.63;;;;;;;;;;5011616;28;20038;-57
2021/12/07 14:43:46;;;;;;;33.58;3.88;;;;;;;;;;5011256;28;20386;-58
2021/12/07 14:46:15;;;;;;;29.95;3.00;;;;;;;;;;5012921;28;20037;-60
2021/12/07 14:48:42;;;;;;;43.35;4.45;;;;;;;;;;5012532;28;20351;-58
2021/12/07 14:51:11;;;;;;;54.30;5.47;;;;;;;;;;5011768;28;20026;-58
2021/12/07 14:53:44;;;;;;;42.92;4.82;;;;;;;;;;5011866;28;20036;-58
2021/12/07 14:56:12;;;;;;;68.78;6.65;;;;;;;;;;5011949;28;20041;-61
2021/12/07 14:58:39;;;;;;;54.42;5.25;;;;;;;;;;5012476;28;20444;-60
2021/12/07 15:01:08;;;;;;;46.53;5.72;;;;;;;;;;5012546;28;20068;-61
2021/12/07 15:03:39;;;;;;;39.92;4.50;;;;;;;;;;5011909;28;20484;-60
2021/12/07 15:06:07;;;;;;;40.97;4.78;;;;;;;;;;5008271;28;20108;-60
2021/12/07 15:08:34;;;;;;;18.30;2.85;;;;;;;;;;5011294;28;20034;-59
2021/12/07 15:11:01;;;;;;;26.85;2.92;;;;;;;;;;5012545;28;20464;-61
2021/12/07 15:13:29;;;;;;;24.55;2.65;;;;;;;;;;5011657;28;20033;-60
2021/12/07 15:15:58;;;;;;;20.73;2.70;;;;;;;;;;5011317;28;20327;-61
2021/12/07 15:18:39;;;;;;;19.88;2.75;;;;;;;;;;5011194;28;20030;-60
2021/12/07 15:21:07;;;;;;;24.95;2.75;;;;;;;;;;5008711;28;20385;-60
2021/12/07 15:23:34;;;;;;;38.65;3.28;;;;;;;;;;5012113;28;20022;-60
2021/12/07 15:26:01;;;;;;;27.88;3.17;;;;;;;;;;5008490;28;20044;-61
2021/12/07 15:28:28;;;;;;;41.78;3.60;;;;;;;;;;5010234;28;20046;-60
2021/12/07 15:30:55;;;;;;;24.23;2.78;;;;;;;;;;5012323;28;20467;-61
2021/12/07 15:33:22;;;;;;;36.63;3.97;;;;;;;;;;5011501;28;20061;-61
2021/12/07 15:35:50;;;;;;;31.05;2.80;;;;;;;;;;5011229;28;20088;-60
2021/12/07 15:38:21;;;;;;;21.85;2.75;;;;;;;;;;5010096;28;20080;-61
2021/12/07 15:40:49;;;;;;;29.95;2.97;;;;;;;;;;5011309;28;20034;-61
2021/12/07 15:43:16;;;;;;;31.50;2.80;;;;;;;;;;5010726;28;20096;-60
2021/12/07 15:45:45;;;;;;;26.98;2.70;;;;;;;;;;5011090;28;20117;-61
2021/12/07 15:48:12;;;;;;;26.88;3.15;;;;;;;;;;5011554;28;20021;-61
2021/12/07 15:50:40;;;;;;;19.70;2.40;;;;;;;;;;5002377;28;20084;-60
2021/12/07 15:53:11;;;;;;;17.23;2.50;;;;;;;;;;5003007;28;20049;-59
2021/12/07 15:55:42;;;;;;;21.83;1.90;;;;;;;;;;4997637;28;20022;-60
2021/12/07 15:58:17;;;;;;;26.45;3.15;;;;;;;;;;5010387;28;20036;-60
2021/12/07 16:00:49;;;;;;;18.25;2.55;;;;;;;;;;5001728;28;20023;-61
2021/12/07 16:03:28;;;;;;;24.50;2.28;;;;;;;;;;5008887;28;20335;-61
2021/12/07 16:06:00;;;;;;;22.27;2.70;;;;;;;;;;5007963;28;20433;-60
2021/12/07 16:08:35;;;;;;;26.10;2.63;;;;;;;;;;5002525;28;20057;-60
2021/12/07 16:11:13;;;;;;;25.70;3.33;;;;;;;;;;4996705;28;20034;-60
2021/12/07 16:13:41;;;;;;;21.67;2.75;;;;;;;;;;5001617;28;20033;-60
2021/12/07 16:16:14;;;;;;;40.20;3.92;;;;;;;;;;4997363;28;20025;-61
2021/12/07 16:18:43;;;;;;;17.90;3.42;;;;;;;;;;5002626;28;20397;-60
2021/12/07 16:21:10;;;;;;;34.30;3.83;;;;;;;;;;4998138;28;20056;-60
2021/12/07 16:23:38;;;;;;;30.50;4.05;;;;;;;;;;4999175;28;20037;-62
2021/12/07 16:26:09;;;;;;;23.67;3.35;;;;;;;;;;4999889;28;20548;-61
2021/12/07 16:28:41;;;;;;;31.05;3.83;;;;;;;;;;5008440;28;20053;-60
2021/12/07 16:31:08;;;;;;;26.40;3.40;;;;;;;;;;5005744;28;20026;-60
2021/12/07 16:33:35;;;;;;;32.72;4.07;;;;;;;;;;5002083;28;20532;-59
2021/12/07 16:36:03;;;;;;;26.23;3.70;;;;;;;;;;5006899;28;20037;-60